sensor_id;sensor_type;location;lat;lon;timestamp;P1;durP1;ratioP1;P2;durP2;ratioP2
22282;SDS011;11310;51.528;21.204;2022-10-19T00:01:37;13.10;;;4.13;;
22282;SDS011;11310;51.528;21.204;2022-10-19T00:04:07;8.77;;;3.40;;
22282;SDS011;11310;51.528;21.204;2022-10-19T00:06:37;7.20;;;3.72;;
22282;SDS011;11310;51.528;21.204;2022-10-19T00:09:07;7.85;;;3.30;;
22282;SDS011;11310;51.528;21.204;2022-10-19T00:11:38;12.27;;;3.70;;
22282;SDS011;11310;51.528;21.204;2022-10-19T00:14:09;7.68;;;3.30;;
22282;SDS011;11310;51.528;21.204;2022-10-19T00:16:42;11.00;;;3.83;;
22282;SDS011;11310;51.528;21.204;2022-10-19T00:19:19;6.80;;;3.60;;
22282;SDS011;11310;51.528;21.204;2022-10-19T00:21:50;10.90;;;3.67;;
22282;SDS011;11310;51.528;21.204;2022-10-19T00:24:18;9.05;;;3.22;;
22282;SDS011;11310;51.528;21.204;2022-10-19T00:26:47;8.20;;;3.28;;
22282;SDS011;11310;51.528;21.204;2022-10-19T00:29:17;11.32;;;3.97;;
22282;SDS011;11310;51.528;21.204;2022-10-19T00:31:47;8.68;;;4.05;;
22282;SDS011;11310;51.528;21.204;2022-10-19T00:34:18;6.50;;;3.45;;
22282;SDS011;11310;51.528;21.204;2022-10-19T00:36:47;14.27;;;4.22;;
22282;SDS011;11310;51.528;21.204;2022-10-19T00:39:16;9.90;;;3.33;;
22282;SDS011;11310;51.528;21.204;2022-10-19T00:41:46;7.85;;;4.07;;
22282;SDS011;11310;51.528;21.204;2022-10-19T00:47:21;12.35;;;4.05;;
22282;SDS011;11310;51.528;21.204;2022-10-19T00:49:53;6.97;;;3.55;;
22282;SDS011;11310;51.528;21.204;2022-10-19T00:52:23;9.90;;;4.60;;
22282;SDS011;11310;51.528;21.204;2022-10-19T00:54:53;11.05;;;5.15;;
22282;SDS011;11310;51.528;21.204;2022-10-19T00:57:26;10.90;;;4.28;;
22282;SDS011;11310;51.528;21.204;2022-10-19T00:59:58;10.10;;;4.05;;
22282;SDS011;11310;51.528;21.204;2022-10-19T01:02:30;10.73;;;4.50;;
22282;SDS011;11310;51.528;21.204;2022-10-19T01:05:01;12.07;;;4.65;;
22282;SDS011;11310;51.528;21.204;2022-10-19T01:07:31;8.43;;;4.30;;
22282;SDS011;11310;51.528;21.204;2022-10-19T01:10:00;14.48;;;4.85;;
22282;SDS011;11310;51.528;21.204;2022-10-19T01:15:21;8.95;;;4.82;;
22282;SDS011;11310;51.528;21.204;2022-10-19T01:18:01;9.90;;;4.60;;
22282;SDS011;11310;51.528;21.204;2022-10-19T01:23:39;9.43;;;4.90;;
22282;SDS011;11310;51.528;21.204;2022-10-19T01:26:26;8.95;;;4.40;;
22282;SDS011;11310;51.528;21.204;2022-10-19T01:29:12;16.42;;;5.63;;
22282;SDS011;11310;51.528;21.204;2022-10-19T01:31:52;11.38;;;4.55;;
22282;SDS011;11310;51.528;21.204;2022-10-19T01:34:28;14.73;;;4.78;;
22282;SDS011;11310;51.528;21.204;2022-10-19T01:37:01;9.40;;;4.45;;
22282;SDS011;11310;51.528;21.204;2022-10-19T01:39:40;14.73;;;4.90;;
22282;SDS011;11310;51.528;21.204;2022-10-19T01:42:18;11.32;;;4.80;;
22282;SDS011;11310;51.528;21.204;2022-10-19T01:44:53;9.88;;;3.95;;
22282;SDS011;11310;51.528;21.204;2022-10-19T01:47:31;11.50;;;4.07;;
22282;SDS011;11310;51.528;21.204;2022-10-19T01:50:05;8.50;;;4.65;;
22282;SDS011;11310;51.528;21.204;2022-10-19T01:52:37;11.50;;;4.85;;
22282;SDS011;11310;51.528;21.204;2022-10-19T01:55:09;9.82;;;4.82;;
22282;SDS011;11310;51.528;21.204;2022-10-19T01:57:42;9.07;;;4.20;;
22282;SDS011;11310;51.528;21.204;2022-10-19T02:00:15;15.82;;;5.63;;
22282;SDS011;11310;51.528;21.204;2022-10-19T02:02:46;9.90;;;4.30;;
22282;SDS011;11310;51.528;21.204;2022-10-19T02:05:17;13.88;;;4.65;;
22282;SDS011;11310;51.528;21.204;2022-10-19T02:07:48;12.70;;;5.00;;
22282;SDS011;11310;51.528;21.204;2022-10-19T02:10:27;12.85;;;4.88;;
22282;SDS011;11310;51.528;21.204;2022-10-19T02:12:58;12.15;;;4.80;;
22282;SDS011;11310;51.528;21.204;2022-10-19T02:15:30;12.35;;;4.97;;
22282;SDS011;11310;51.528;21.204;2022-10-19T02:18:04;13.05;;;4.70;;
22282;SDS011;11310;51.528;21.204;2022-10-19T02:20:34;11.27;;;4.80;;
22282;SDS011;11310;51.528;21.204;2022-10-19T02:23:03;12.18;;;4.93;;
22282;SDS011;11310;51.528;21.204;2022-10-19T02:25:33;11.57;;;5.25;;
22282;SDS011;11310;51.528;21.204;2022-10-19T02:28:02;12.15;;;5.25;;
22282;SDS011;11310;51.528;21.204;2022-10-19T02:30:32;10.55;;;4.47;;
22282;SDS011;11310;51.528;21.204;2022-10-19T02:33:00;14.25;;;5.80;;
22282;SDS011;11310;51.528;21.204;2022-10-19T02:35:31;12.10;;;4.45;;
22282;SDS011;11310;51.528;21.204;2022-10-19T02:38:00;11.40;;;4.70;;
22282;SDS011;11310;51.528;21.204;2022-10-19T02:40:31;11.45;;;4.65;;
22282;SDS011;11310;51.528;21.204;2022-10-19T02:43:04;12.10;;;4.85;;
22282;SDS011;11310;51.528;21.204;2022-10-19T02:45:37;10.55;;;4.93;;
22282;SDS011;11310;51.528;21.204;2022-10-19T02:48:12;11.15;;;4.78;;
22282;SDS011;11310;51.528;21.204;2022-10-19T02:50:49;12.23;;;4.72;;
22282;SDS011;11310;51.528;21.204;2022-10-19T02:53:19;13.60;;;4.78;;
22282;SDS011;11310;51.528;21.204;2022-10-19T02:55:48;10.23;;;4.68;;
22282;SDS011;11310;51.528;21.204;2022-10-19T02:58:19;12.27;;;5.32;;
22282;SDS011;11310;51.528;21.204;2022-10-19T03:00:47;14.93;;;5.68;;
22282;SDS011;11310;51.528;21.204;2022-10-19T03:03:16;9.65;;;4.35;;
22282;SDS011;11310;51.528;21.204;2022-10-19T03:05:45;10.20;;;4.90;;
22282;SDS011;11310;51.528;21.204;2022-10-19T03:08:15;10.55;;;5.63;;
22282;SDS011;11310;51.528;21.204;2022-10-19T03:10:44;12.43;;;5.40;;
22282;SDS011;11310;51.528;21.204;2022-10-19T03:13:12;12.68;;;5.38;;
22282;SDS011;11310;51.528;21.204;2022-10-19T03:15:41;10.55;;;4.72;;
22282;SDS011;11310;51.528;21.204;2022-10-19T03:18:09;11.02;;;5.10;;
22282;SDS011;11310;51.528;21.204;2022-10-19T03:20:38;13.55;;;5.43;;
22282;SDS011;11310;51.528;21.204;2022-10-19T03:23:08;10.77;;;5.68;;
22282;SDS011;11310;51.528;21.204;2022-10-19T03:25:38;11.13;;;5.35;;
22282;SDS011;11310;51.528;21.204;2022-10-19T03:28:06;12.32;;;5.22;;
22282;SDS011;11310;51.528;21.204;2022-10-19T03:30:35;10.38;;;5.13;;
22282;SDS011;11310;51.528;21.204;2022-10-19T03:33:03;15.30;;;4.97;;
22282;SDS011;11310;51.528;21.204;2022-10-19T03:35:33;13.93;;;5.40;;
22282;SDS011;11310;51.528;21.204;2022-10-19T03:38:01;13.50;;;5.63;;
22282;SDS011;11310;51.528;21.204;2022-10-19T03:40:30;10.77;;;4.70;;
22282;SDS011;11310;51.528;21.204;2022-10-19T03:43:00;12.30;;;5.40;;
22282;SDS011;11310;51.528;21.204;2022-10-19T03:45:29;11.20;;;5.03;;
22282;SDS011;11310;51.528;21.204;2022-10-19T03:47:57;9.68;;;4.75;;
22282;SDS011;11310;51.528;21.204;2022-10-19T03:50:26;11.60;;;5.15;;
22282;SDS011;11310;51.528;21.204;2022-10-19T03:52:54;13.60;;;5.05;;
22282;SDS011;11310;51.528;21.204;2022-10-19T03:55:23;13.15;;;4.60;;
22282;SDS011;11310;51.528;21.204;2022-10-19T03:57:51;12.95;;;5.00;;
22282;SDS011;11310;51.528;21.204;2022-10-19T04:00:22;15.13;;;5.80;;
22282;SDS011;11310;51.528;21.204;2022-10-19T04:02:51;11.10;;;5.00;;
22282;SDS011;11310;51.528;21.204;2022-10-19T04:05:19;9.60;;;4.50;;
22282;SDS011;11310;51.528;21.204;2022-10-19T04:07:48;12.45;;;5.53;;
22282;SDS011;11310;51.528;21.204;2022-10-19T04:10:16;11.20;;;5.10;;
22282;SDS011;11310;51.528;21.204;2022-10-19T04:12:46;11.13;;;5.40;;
22282;SDS011;11310;51.528;21.204;2022-10-19T04:15:20;14.10;;;6.25;;
22282;SDS011;11310;51.528;21.204;2022-10-19T04:17:50;14.25;;;5.07;;
22282;SDS011;11310;51.528;21.204;2022-10-19T04:20:19;11.18;;;5.97;;
22282;SDS011;11310;51.528;21.204;2022-10-19T04:22:48;15.63;;;5.90;;
22282;SDS011;11310;51.528;21.204;2022-10-19T04:25:19;15.40;;;5.68;;
22282;SDS011;11310;51.528;21.204;2022-10-19T04:27:48;14.07;;;6.22;;
22282;SDS011;11310;51.528;21.204;2022-10-19T04:30:17;11.90;;;6.15;;
22282;SDS011;11310;51.528;21.204;2022-10-19T04:32:47;13.52;;;5.75;;
22282;SDS011;11310;51.528;21.204;2022-10-19T04:35:16;12.88;;;5.65;;
22282;SDS011;11310;51.528;21.204;2022-10-19T04:37:44;12.32;;;5.65;;
22282;SDS011;11310;51.528;21.204;2022-10-19T04:40:13;12.35;;;6.03;;
22282;SDS011;11310;51.528;21.204;2022-10-19T04:42:42;9.27;;;5.70;;
22282;SDS011;11310;51.528;21.204;2022-10-19T04:45:10;17.10;;;7.32;;
22282;SDS011;11310;51.528;21.204;2022-10-19T04:47:39;11.63;;;5.97;;
22282;SDS011;11310;51.528;21.204;2022-10-19T04:50:10;9.13;;;5.07;;
22282;SDS011;11310;51.528;21.204;2022-10-19T04:52:41;16.95;;;5.97;;
22282;SDS011;11310;51.528;21.204;2022-10-19T04:55:13;14.32;;;5.68;;
22282;SDS011;11310;51.528;21.204;2022-10-19T04:57:42;11.48;;;5.15;;
22282;SDS011;11310;51.528;21.204;2022-10-19T05:00:11;16.05;;;6.28;;
22282;SDS011;11310;51.528;21.204;2022-10-19T05:02:42;13.25;;;5.30;;
22282;SDS011;11310;51.528;21.204;2022-10-19T05:05:13;13.13;;;5.60;;
22282;SDS011;11310;51.528;21.204;2022-10-19T05:07:42;12.82;;;5.53;;
22282;SDS011;11310;51.528;21.204;2022-10-19T05:10:10;12.70;;;5.38;;
22282;SDS011;11310;51.528;21.204;2022-10-19T05:12:39;11.35;;;4.78;;
22282;SDS011;11310;51.528;21.204;2022-10-19T05:15:08;11.15;;;5.13;;
22282;SDS011;11310;51.528;21.204;2022-10-19T05:17:37;11.43;;;5.00;;
22282;SDS011;11310;51.528;21.204;2022-10-19T05:20:06;11.32;;;4.90;;
22282;SDS011;11310;51.528;21.204;2022-10-19T05:22:38;12.13;;;4.53;;
22282;SDS011;11310;51.528;21.204;2022-10-19T05:25:08;15.02;;;5.10;;
22282;SDS011;11310;51.528;21.204;2022-10-19T05:27:36;11.88;;;4.45;;
22282;SDS011;11310;51.528;21.204;2022-10-19T05:30:06;11.02;;;4.85;;
22282;SDS011;11310;51.528;21.204;2022-10-19T05:32:35;12.05;;;4.82;;
22282;SDS011;11310;51.528;21.204;2022-10-19T05:35:04;9.77;;;4.47;;
22282;SDS011;11310;51.528;21.204;2022-10-19T05:37:33;9.88;;;4.60;;
22282;SDS011;11310;51.528;21.204;2022-10-19T05:40:04;13.07;;;4.93;;
22282;SDS011;11310;51.528;21.204;2022-10-19T05:42:34;9.75;;;4.25;;
22282;SDS011;11310;51.528;21.204;2022-10-19T05:45:03;13.15;;;4.85;;
22282;SDS011;11310;51.528;21.204;2022-10-19T05:47:33;10.00;;;4.28;;
22282;SDS011;11310;51.528;21.204;2022-10-19T05:50:03;10.52;;;4.47;;
22282;SDS011;11310;51.528;21.204;2022-10-19T05:52:32;11.88;;;4.72;;
22282;SDS011;11310;51.528;21.204;2022-10-19T05:55:01;9.05;;;4.32;;
22282;SDS011;11310;51.528;21.204;2022-10-19T05:57:31;13.45;;;4.60;;
22282;SDS011;11310;51.528;21.204;2022-10-19T06:00:01;11.18;;;4.38;;
22282;SDS011;11310;51.528;21.204;2022-10-19T06:02:37;9.20;;;4.40;;
22282;SDS011;11310;51.528;21.204;2022-10-19T06:05:06;13.82;;;4.72;;
22282;SDS011;11310;51.528;21.204;2022-10-19T06:07:36;9.70;;;4.10;;
22282;SDS011;11310;51.528;21.204;2022-10-19T06:10:05;9.18;;;3.85;;
22282;SDS011;11310;51.528;21.204;2022-10-19T06:12:37;11.60;;;4.22;;
22282;SDS011;11310;51.528;21.204;2022-10-19T06:15:06;8.07;;;3.83;;
22282;SDS011;11310;51.528;21.204;2022-10-19T06:17:36;14.85;;;3.75;;
22282;SDS011;11310;51.528;21.204;2022-10-19T06:20:05;8.90;;;3.70;;
22282;SDS011;11310;51.528;21.204;2022-10-19T06:22:34;10.30;;;4.45;;
22282;SDS011;11310;51.528;21.204;2022-10-19T06:25:03;12.77;;;4.50;;
22282;SDS011;11310;51.528;21.204;2022-10-19T06:27:32;8.77;;;4.47;;
22282;SDS011;11310;51.528;21.204;2022-10-19T06:30:03;15.32;;;4.35;;
22282;SDS011;11310;51.528;21.204;2022-10-19T06:32:34;11.45;;;4.28;;
22282;SDS011;11310;51.528;21.204;2022-10-19T06:35:03;10.23;;;4.35;;
22282;SDS011;11310;51.528;21.204;2022-10-19T06:37:33;14.57;;;5.03;;
22282;SDS011;11310;51.528;21.204;2022-10-19T06:40:02;12.57;;;4.20;;
22282;SDS011;11310;51.528;21.204;2022-10-19T06:42:33;9.10;;;4.50;;
22282;SDS011;11310;51.528;21.204;2022-10-19T06:45:07;12.43;;;4.40;;
22282;SDS011;11310;51.528;21.204;2022-10-19T06:47:37;10.25;;;4.50;;
22282;SDS011;11310;51.528;21.204;2022-10-19T06:50:06;9.98;;;4.55;;
22282;SDS011;11310;51.528;21.204;2022-10-19T06:52:35;13.48;;;4.40;;
22282;SDS011;11310;51.528;21.204;2022-10-19T06:55:07;8.65;;;4.40;;
22282;SDS011;11310;51.528;21.204;2022-10-19T06:57:36;12.45;;;4.43;;
22282;SDS011;11310;51.528;21.204;2022-10-19T07:00:08;14.57;;;5.25;;
22282;SDS011;11310;51.528;21.204;2022-10-19T07:02:38;12.48;;;4.88;;
22282;SDS011;11310;51.528;21.204;2022-10-19T07:05:06;13.00;;;4.75;;
22282;SDS011;11310;51.528;21.204;2022-10-19T07:07:36;11.60;;;4.70;;
22282;SDS011;11310;51.528;21.204;2022-10-19T07:10:05;10.55;;;4.55;;
22282;SDS011;11310;51.528;21.204;2022-10-19T07:12:34;13.60;;;5.70;;
22282;SDS011;11310;51.528;21.204;2022-10-19T07:15:03;13.38;;;5.55;;
22282;SDS011;11310;51.528;21.204;2022-10-19T07:17:34;14.25;;;6.20;;
22282;SDS011;11310;51.528;21.204;2022-10-19T07:20:03;13.50;;;5.13;;
22282;SDS011;11310;51.528;21.204;2022-10-19T07:22:32;12.15;;;4.68;;
22282;SDS011;11310;51.528;21.204;2022-10-19T07:25:01;14.27;;;5.10;;
22282;SDS011;11310;51.528;21.204;2022-10-19T07:27:31;13.82;;;4.65;;
22282;SDS011;11310;51.528;21.204;2022-10-19T07:30:03;11.95;;;4.65;;
22282;SDS011;11310;51.528;21.204;2022-10-19T07:32:34;11.57;;;4.30;;
22282;SDS011;11310;51.528;21.204;2022-10-19T07:35:03;9.98;;;4.25;;
22282;SDS011;11310;51.528;21.204;2022-10-19T07:37:32;11.45;;;4.20;;
22282;SDS011;11310;51.528;21.204;2022-10-19T07:40:04;10.57;;;4.32;;
22282;SDS011;11310;51.528;21.204;2022-10-19T07:42:34;8.50;;;4.15;;
22282;SDS011;11310;51.528;21.204;2022-10-19T07:45:04;11.60;;;3.97;;
22282;SDS011;11310;51.528;21.204;2022-10-19T07:47:35;12.35;;;4.50;;
22282;SDS011;11310;51.528;21.204;2022-10-19T07:50:04;12.93;;;4.47;;
22282;SDS011;11310;51.528;21.204;2022-10-19T07:52:33;12.43;;;5.00;;
22282;SDS011;11310;51.528;21.204;2022-10-19T07:55:03;7.63;;;4.45;;
22282;SDS011;11310;51.528;21.204;2022-10-19T07:57:32;11.25;;;4.20;;
22282;SDS011;11310;51.528;21.204;2022-10-19T08:00:00;10.50;;;4.15;;
22282;SDS011;11310;51.528;21.204;2022-10-19T08:02:39;10.65;;;4.30;;
22282;SDS011;11310;51.528;21.204;2022-10-19T08:05:27;8.07;;;4.20;;
22282;SDS011;11310;51.528;21.204;2022-10-19T08:07:57;8.15;;;4.15;;
22282;SDS011;11310;51.528;21.204;2022-10-19T08:10:26;8.93;;;4.28;;
22282;SDS011;11310;51.528;21.204;2022-10-19T08:12:55;9.48;;;4.00;;
22282;SDS011;11310;51.528;21.204;2022-10-19T08:15:27;8.38;;;3.88;;
22282;SDS011;11310;51.528;21.204;2022-10-19T08:17:58;10.35;;;4.40;;
22282;SDS011;11310;51.528;21.204;2022-10-19T08:20:28;10.68;;;3.50;;
22282;SDS011;11310;51.528;21.204;2022-10-19T08:22:57;7.65;;;3.55;;
22282;SDS011;11310;51.528;21.204;2022-10-19T08:25:26;8.60;;;3.38;;
22282;SDS011;11310;51.528;21.204;2022-10-19T08:27:54;7.70;;;3.33;;
22282;SDS011;11310;51.528;21.204;2022-10-19T08:30:23;7.35;;;3.28;;
22282;SDS011;11310;51.528;21.204;2022-10-19T08:32:52;8.65;;;3.25;;
22282;SDS011;11310;51.528;21.204;2022-10-19T08:35:23;9.93;;;3.58;;
22282;SDS011;11310;51.528;21.204;2022-10-19T08:37:56;6.50;;;2.97;;
22282;SDS011;11310;51.528;21.204;2022-10-19T08:40:29;9.73;;;3.35;;
22282;SDS011;11310;51.528;21.204;2022-10-19T08:43:01;8.80;;;3.45;;
22282;SDS011;11310;51.528;21.204;2022-10-19T08:45:37;8.57;;;2.65;;
22282;SDS011;11310;51.528;21.204;2022-10-19T08:48:22;10.45;;;3.00;;
22282;SDS011;11310;51.528;21.204;2022-10-19T08:50:56;7.47;;;2.70;;
22282;SDS011;11310;51.528;21.204;2022-10-19T08:56:05;6.90;;;2.25;;
22282;SDS011;11310;51.528;21.204;2022-10-19T08:59:07;8.38;;;1.90;;
22282;SDS011;11310;51.528;21.204;2022-10-19T09:01:42;6.82;;;2.20;;
22282;SDS011;11310;51.528;21.204;2022-10-19T09:04:16;5.50;;;2.25;;
22282;SDS011;11310;51.528;21.204;2022-10-19T09:06:56;7.07;;;1.95;;
22282;SDS011;11310;51.528;21.204;2022-10-19T09:09:33;7.13;;;2.00;;
22282;SDS011;11310;51.528;21.204;2022-10-19T09:12:06;7.85;;;2.00;;
22282;SDS011;11310;51.528;21.204;2022-10-19T09:14:43;4.97;;;1.73;;
22282;SDS011;11310;51.528;21.204;2022-10-19T09:17:18;7.65;;;1.85;;
22282;SDS011;11310;51.528;21.204;2022-10-19T09:19:48;5.47;;;1.70;;
22282;SDS011;11310;51.528;21.204;2022-10-19T09:22:19;5.38;;;1.40;;
22282;SDS011;11310;51.528;21.204;2022-10-19T09:24:52;7.82;;;1.60;;
22282;SDS011;11310;51.528;21.204;2022-10-19T09:27:26;3.72;;;1.58;;
22282;SDS011;11310;51.528;21.204;2022-10-19T09:30:04;3.10;;;1.30;;
22282;SDS011;11310;51.528;21.204;2022-10-19T09:32:40;5.32;;;1.60;;
22282;SDS011;11310;51.528;21.204;2022-10-19T09:35:16;4.28;;;1.33;;
22282;SDS011;11310;51.528;21.204;2022-10-19T09:40:24;5.80;;;1.33;;
22282;SDS011;11310;51.528;21.204;2022-10-19T09:42:55;4.90;;;1.60;;
22282;SDS011;11310;51.528;21.204;2022-10-19T09:45:31;3.45;;;1.63;;
22282;SDS011;11310;51.528;21.204;2022-10-19T09:48:03;3.28;;;1.55;;
22282;SDS011;11310;51.528;21.204;2022-10-19T09:50:42;8.50;;;1.73;;
22282;SDS011;11310;51.528;21.204;2022-10-19T09:53:18;6.78;;;1.60;;
22282;SDS011;11310;51.528;21.204;2022-10-19T09:55:50;5.22;;;1.70;;
22282;SDS011;11310;51.528;21.204;2022-10-19T09:58:27;4.03;;;1.50;;
22282;SDS011;11310;51.528;21.204;2022-10-19T10:00:59;5.13;;;1.77;;
22282;SDS011;11310;51.528;21.204;2022-10-19T10:03:31;3.40;;;1.25;;
22282;SDS011;11310;51.528;21.204;2022-10-19T10:06:03;4.72;;;1.35;;
22282;SDS011;11310;51.528;21.204;2022-10-19T10:11:07;3.83;;;1.55;;
22282;SDS011;11310;51.528;21.204;2022-10-19T10:13:39;4.13;;;1.45;;
22282;SDS011;11310;51.528;21.204;2022-10-19T10:16:10;4.60;;;1.40;;
22282;SDS011;11310;51.528;21.204;2022-10-19T10:18:47;5.50;;;1.58;;
22282;SDS011;11310;51.528;21.204;2022-10-19T10:21:22;5.22;;;1.42;;
22282;SDS011;11310;51.528;21.204;2022-10-19T10:24:02;4.80;;;1.55;;
22282;SDS011;11310;51.528;21.204;2022-10-19T10:26:36;4.05;;;1.55;;
22282;SDS011;11310;51.528;21.204;2022-10-19T10:29:17;8.13;;;1.52;;
22282;SDS011;11310;51.528;21.204;2022-10-19T10:31:48;3.78;;;1.58;;
22282;SDS011;11310;51.528;21.204;2022-10-19T10:34:25;5.68;;;1.60;;
22282;SDS011;11310;51.528;21.204;2022-10-19T10:37:18;4.68;;;1.60;;
22282;SDS011;11310;51.528;21.204;2022-10-19T10:42:28;5.03;;;1.77;;
22282;SDS011;11310;51.528;21.204;2022-10-19T10:45:01;5.18;;;1.98;;
22282;SDS011;11310;51.528;21.204;2022-10-19T10:47:31;6.03;;;1.90;;
22282;SDS011;11310;51.528;21.204;2022-10-19T10:50:14;3.50;;;1.58;;
22282;SDS011;11310;51.528;21.204;2022-10-19T10:52:57;4.68;;;1.58;;
22282;SDS011;11310;51.528;21.204;2022-10-19T10:55:34;5.45;;;1.58;;
22282;SDS011;11310;51.528;21.204;2022-10-19T10:58:06;4.03;;;1.50;;
22282;SDS011;11310;51.528;21.204;2022-10-19T11:00:45;3.88;;;1.38;;
22282;SDS011;11310;51.528;21.204;2022-10-19T11:03:20;4.28;;;1.70;;
22282;SDS011;11310;51.528;21.204;2022-10-19T11:05:55;5.60;;;1.92;;
22282;SDS011;11310;51.528;21.204;2022-10-19T11:08:26;6.43;;;1.88;;
22282;SDS011;11310;51.528;21.204;2022-10-19T11:11:03;5.50;;;1.90;;
22282;SDS011;11310;51.528;21.204;2022-10-19T11:13:44;3.53;;;1.47;;
22282;SDS011;11310;51.528;21.204;2022-10-19T11:16:20;5.53;;;1.45;;
22282;SDS011;11310;51.528;21.204;2022-10-19T11:18:55;4.43;;;1.27;;
22282;SDS011;11310;51.528;21.204;2022-10-19T11:21:30;4.28;;;1.25;;
22282;SDS011;11310;51.528;21.204;2022-10-19T11:24:05;2.35;;;1.23;;
22282;SDS011;11310;51.528;21.204;2022-10-19T11:27:01;1.80;;;1.00;;
22282;SDS011;11310;51.528;21.204;2022-10-19T11:29:47;4.60;;;1.20;;
22282;SDS011;11310;51.528;21.204;2022-10-19T11:32:37;2.80;;;1.08;;
22282;SDS011;11310;51.528;21.204;2022-10-19T11:38:11;4.22;;;1.08;;
22282;SDS011;11310;51.528;21.204;2022-10-19T11:40:58;2.20;;;0.95;;
22282;SDS011;11310;51.528;21.204;2022-10-19T11:43:55;3.17;;;1.10;;
22282;SDS011;11310;51.528;21.204;2022-10-19T11:46:53;3.10;;;1.13;;
22282;SDS011;11310;51.528;21.204;2022-10-19T11:49:39;2.28;;;1.02;;
22282;SDS011;11310;51.528;21.204;2022-10-19T11:52:34;3.65;;;1.35;;
22282;SDS011;11310;51.528;21.204;2022-10-19T11:55:24;5.35;;;1.50;;
22282;SDS011;11310;51.528;21.204;2022-10-19T11:58:12;3.78;;;1.58;;
22282;SDS011;11310;51.528;21.204;2022-10-19T12:01:14;3.92;;;1.20;;
22282;SDS011;11310;51.528;21.204;2022-10-19T12:04:09;3.60;;;1.00;;
22282;SDS011;11310;51.528;21.204;2022-10-19T12:06:51;4.95;;;1.08;;
22282;SDS011;11310;51.528;21.204;2022-10-19T12:09:34;2.85;;;0.80;;
22282;SDS011;11310;51.528;21.204;2022-10-19T12:12:16;2.97;;;0.60;;
22282;SDS011;11310;51.528;21.204;2022-10-19T12:15:00;1.75;;;0.35;;
22282;SDS011;11310;51.528;21.204;2022-10-19T12:17:41;2.20;;;0.47;;
22282;SDS011;11310;51.528;21.204;2022-10-19T12:20:17;1.67;;;0.70;;
22282;SDS011;11310;51.528;21.204;2022-10-19T12:22:51;0.95;;;0.73;;
22282;SDS011;11310;51.528;21.204;2022-10-19T12:25:20;2.58;;;0.55;;
22282;SDS011;11310;51.528;21.204;2022-10-19T12:27:51;0.90;;;0.43;;
22282;SDS011;11310;51.528;21.204;2022-10-19T12:30:27;1.15;;;0.60;;
22282;SDS011;11310;51.528;21.204;2022-10-19T12:33:04;1.60;;;0.70;;
22282;SDS011;11310;51.528;21.204;2022-10-19T12:35:57;0.80;;;0.50;;
22282;SDS011;11310;51.528;21.204;2022-10-19T12:38:37;2.88;;;0.43;;
22282;SDS011;11310;51.528;21.204;2022-10-19T12:41:19;2.25;;;0.68;;
22282;SDS011;11310;51.528;21.204;2022-10-19T12:43:56;0.82;;;0.50;;
22282;SDS011;11310;51.528;21.204;2022-10-19T12:46:34;0.85;;;0.43;;
22282;SDS011;11310;51.528;21.204;2022-10-19T12:52:05;1.25;;;0.50;;
22282;SDS011;11310;51.528;21.204;2022-10-19T12:54:38;2.25;;;0.60;;
22282;SDS011;11310;51.528;21.204;2022-10-19T12:57:20;0.60;;;0.40;;
22282;SDS011;11310;51.528;21.204;2022-10-19T13:00:02;1.10;;;0.57;;
22282;SDS011;11310;51.528;21.204;2022-10-19T13:02:34;1.98;;;0.55;;
22282;SDS011;11310;51.528;21.204;2022-10-19T13:05:18;1.05;;;0.38;;
22282;SDS011;11310;51.528;21.204;2022-10-19T13:07:48;4.10;;;0.50;;
22282;SDS011;11310;51.528;21.204;2022-10-19T13:10:25;2.90;;;0.77;;
22282;SDS011;11310;51.528;21.204;2022-10-19T13:12:56;3.97;;;0.88;;
22282;SDS011;11310;51.528;21.204;2022-10-19T13:21:44;0.98;;;0.47;;
22282;SDS011;11310;51.528;21.204;2022-10-19T13:27:23;0.82;;;0.57;;
22282;SDS011;11310;51.528;21.204;2022-10-19T13:30:04;1.13;;;0.50;;
22282;SDS011;11310;51.528;21.204;2022-10-19T13:32:53;1.52;;;0.50;;
22282;SDS011;11310;51.528;21.204;2022-10-19T13:35:32;3.13;;;0.70;;
22282;SDS011;11310;51.528;21.204;2022-10-19T13:41:11;3.72;;;0.70;;
22282;SDS011;11310;51.528;21.204;2022-10-19T13:43:59;1.27;;;0.60;;
22282;SDS011;11310;51.528;21.204;2022-10-19T13:46:34;2.75;;;0.70;;
22282;SDS011;11310;51.528;21.204;2022-10-19T13:49:37;3.17;;;0.57;;
22282;SDS011;11310;51.528;21.204;2022-10-19T13:52:27;1.55;;;0.60;;
22282;SDS011;11310;51.528;21.204;2022-10-19T13:55:29;2.58;;;0.70;;
22282;SDS011;11310;51.528;21.204;2022-10-19T13:58:22;3.70;;;0.60;;
22282;SDS011;11310;51.528;21.204;2022-10-19T14:01:07;1.25;;;0.60;;
22282;SDS011;11310;51.528;21.204;2022-10-19T14:03:52;3.60;;;0.95;;
22282;SDS011;11310;51.528;21.204;2022-10-19T14:06:32;3.30;;;0.75;;
22282;SDS011;11310;51.528;21.204;2022-10-19T14:09:31;2.38;;;0.82;;
22282;SDS011;11310;51.528;21.204;2022-10-19T14:12:19;4.50;;;0.95;;
22282;SDS011;11310;51.528;21.204;2022-10-19T14:14:51;1.58;;;0.70;;
22282;SDS011;11310;51.528;21.204;2022-10-19T14:17:23;3.55;;;0.70;;
22282;SDS011;11310;51.528;21.204;2022-10-19T14:19:56;1.98;;;0.68;;
22282;SDS011;11310;51.528;21.204;2022-10-19T14:22:27;1.25;;;0.60;;
22282;SDS011;11310;51.528;21.204;2022-10-19T14:25:01;1.08;;;0.60;;
22282;SDS011;11310;51.528;21.204;2022-10-19T14:27:34;2.67;;;0.82;;
22282;SDS011;11310;51.528;21.204;2022-10-19T14:30:04;1.77;;;0.50;;
22282;SDS011;11310;51.528;21.204;2022-10-19T14:32:34;3.00;;;0.63;;
22282;SDS011;11310;51.528;21.204;2022-10-19T14:35:14;3.05;;;0.88;;
22282;SDS011;11310;51.528;21.204;2022-10-19T14:37:49;1.85;;;0.60;;
22282;SDS011;11310;51.528;21.204;2022-10-19T14:40:23;2.28;;;0.60;;
22282;SDS011;11310;51.528;21.204;2022-10-19T14:43:00;1.90;;;0.80;;
22282;SDS011;11310;51.528;21.204;2022-10-19T14:46:08;3.63;;;0.77;;
22282;SDS011;11310;51.528;21.204;2022-10-19T14:48:40;1.33;;;0.65;;
22282;SDS011;11310;51.528;21.204;2022-10-19T14:51:25;1.65;;;0.80;;
22282;SDS011;11310;51.528;21.204;2022-10-19T14:54:06;1.95;;;0.73;;
22282;SDS011;11310;51.528;21.204;2022-10-19T14:56:41;1.77;;;1.05;;
22282;SDS011;11310;51.528;21.204;2022-10-19T14:59:21;0.98;;;0.68;;
22282;SDS011;11310;51.528;21.204;2022-10-19T15:01:54;2.17;;;0.73;;
22282;SDS011;11310;51.528;21.204;2022-10-19T15:04:27;4.05;;;1.10;;
22282;SDS011;11310;51.528;21.204;2022-10-19T15:07:00;2.47;;;0.70;;
22282;SDS011;11310;51.528;21.204;2022-10-19T15:09:32;3.15;;;0.73;;
22282;SDS011;11310;51.528;21.204;2022-10-19T15:12:14;2.92;;;0.90;;
22282;SDS011;11310;51.528;21.204;2022-10-19T15:14:48;2.15;;;0.60;;
22282;SDS011;11310;51.528;21.204;2022-10-19T15:17:20;6.20;;;0.80;;
22282;SDS011;11310;51.528;21.204;2022-10-19T15:19:53;4.53;;;1.08;;
22282;SDS011;11310;51.528;21.204;2022-10-19T15:22:26;3.63;;;0.85;;
22282;SDS011;11310;51.528;21.204;2022-10-19T15:27:54;1.20;;;0.82;;
22282;SDS011;11310;51.528;21.204;2022-10-19T15:30:27;4.95;;;1.00;;
22282;SDS011;11310;51.528;21.204;2022-10-19T15:33:12;4.05;;;1.50;;
22282;SDS011;11310;51.528;21.204;2022-10-19T15:35:42;1.90;;;0.80;;
22282;SDS011;11310;51.528;21.204;2022-10-19T15:38:15;1.60;;;0.80;;
22282;SDS011;11310;51.528;21.204;2022-10-19T15:40:49;3.67;;;1.20;;
22282;SDS011;11310;51.528;21.204;2022-10-19T15:43:42;4.50;;;1.30;;
22282;SDS011;11310;51.528;21.204;2022-10-19T15:46:22;2.75;;;1.13;;
22282;SDS011;11310;51.528;21.204;2022-10-19T15:49:24;2.47;;;1.30;;